createdAt,value
2017-09-20T00:02:31.462Z,1012.49
2017-09-20T00:12:31.538Z,1012.4
2017-09-20T00:22:31.424Z,1012.37
2017-09-20T00:32:31.555Z,1012.31
2017-09-20T00:42:31.445Z,1012.29
2017-09-20T00:52:31.455Z,1012.28
2017-09-20T01:02:31.546Z,1012.34
2017-09-20T01:12:31.449Z,1012.31
2017-09-20T01:22:31.436Z,1012.13
2017-09-20T01:32:31.430Z,1012.16
2017-09-20T01:42:31.540Z,1012.13
2017-09-20T01:52:31.497Z,1012.06
2017-09-20T02:02:31.475Z,1011.97
2017-09-20T02:12:31.517Z,1012.04
2017-09-20T02:22:31.429Z,1012.18
2017-09-20T02:32:31.448Z,1012.11
2017-09-20T02:42:31.495Z,1012.15
2017-09-20T02:52:31.424Z,1012.19
2017-09-20T03:02:31.560Z,1012.23
2017-09-20T03:12:31.410Z,1012.28
2017-09-20T03:22:31.407Z,1012.31
2017-09-20T03:32:31.507Z,1012.32
2017-09-20T03:42:31.485Z,1012.37
2017-09-20T03:52:31.439Z,1012.42
2017-09-20T04:02:31.491Z,1012.32
2017-09-20T04:12:31.480Z,1012.29
2017-09-20T04:22:31.530Z,1012.26
2017-09-20T04:32:31.489Z,1012.31
2017-09-20T04:42:31.480Z,1012.34
2017-09-20T04:52:31.513Z,1012.47
2017-09-20T05:02:31.465Z,1012.51
2017-09-20T05:12:31.533Z,1012.53
2017-09-20T05:22:31.526Z,1012.57
2017-09-20T05:32:31.474Z,1012.58
2017-09-20T05:42:31.513Z,1012.56
2017-09-20T05:52:31.543Z,1012.55
2017-09-20T06:02:31.523Z,1012.57
2017-09-20T06:12:31.503Z,1012.69
2017-09-20T06:22:31.513Z,1012.71
2017-09-20T06:32:31.513Z,1012.81
2017-09-20T06:42:31.533Z,1012.81
2017-09-20T06:52:31.539Z,1012.86
2017-09-20T07:02:31.553Z,1012.84
2017-09-20T07:12:31.548Z,1012.95
2017-09-20T07:22:31.572Z,1012.97
2017-09-20T07:32:31.576Z,1013.02
2017-09-20T07:42:31.568Z,1013.01
2017-09-20T07:52:31.623Z,1013.06
2017-09-20T08:02:31.605Z,1013.07
2017-09-20T08:12:31.629Z,1013.11
2017-09-20T08:22:31.622Z,1013.15
2017-09-20T08:32:31.626Z,1013.2
2017-09-20T08:42:31.648Z,1013.17
2017-09-20T08:52:31.651Z,1013.11
2017-09-20T09:02:31.656Z,1013.22
2017-09-20T09:12:31.664Z,1013.29
2017-09-20T09:22:31.703Z,1013.34
2017-09-20T09:32:31.697Z,1013.38
2017-09-20T09:42:31.711Z,1013.34
2017-09-20T09:52:31.705Z,1013.32
2017-09-20T10:02:31.779Z,1013.3
2017-09-20T10:12:31.714Z,1013.3
2017-09-20T10:22:31.723Z,1013.26
2017-09-20T10:32:31.797Z,1013.27
2017-09-20T10:42:31.732Z,1013.21
2017-09-20T10:52:31.735Z,1013.1
2017-09-20T11:02:31.703Z,1013.06
2017-09-20T11:12:31.728Z,1013.03
2017-09-20T11:22:31.707Z,1013.02
2017-09-20T11:32:31.732Z,1012.95
2017-09-20T11:42:31.726Z,1012.93
2017-09-20T11:52:31.715Z,1012.82
2017-09-20T12:02:31.729Z,1012.78
2017-09-20T12:12:31.729Z,1012.86
2017-09-20T12:22:31.759Z,1012.97
2017-09-20T12:32:31.821Z,1012.84
2017-09-20T12:42:31.716Z,1012.76
2017-09-20T12:52:31.719Z,1012.82
2017-09-20T13:02:31.809Z,1012.81
2017-09-20T13:12:31.771Z,1012.74
2017-09-20T13:22:32.419Z,1012.68
2017-09-20T13:32:31.802Z,1012.62
2017-09-20T13:42:31.849Z,1012.68
2017-09-20T13:52:31.743Z,1012.65
2017-09-20T14:02:31.790Z,1012.69
2017-09-20T14:12:31.730Z,1012.63
2017-09-20T14:22:31.995Z,1012.69
2017-09-20T14:32:31.760Z,1012.71
2017-09-20T14:42:31.843Z,1012.77
2017-09-20T14:52:31.730Z,1012.77
2017-09-20T15:02:31.837Z,1012.72
2017-09-20T15:12:31.744Z,1012.72
2017-09-20T15:22:31.748Z,1012.77
2017-09-20T15:32:31.739Z,1012.72
2017-09-20T15:42:32.802Z,1012.74
2017-09-20T15:52:33.803Z,1012.71
2017-09-20T16:02:31.763Z,1012.67
2017-09-20T16:12:32.790Z,1012.68
2017-09-20T16:22:31.754Z,1012.75
2017-09-20T16:52:31.760Z,1012.63
2017-09-20T17:02:31.744Z,1012.69
2017-09-20T17:12:32.757Z,1012.7
2017-09-20T17:22:31.732Z,1012.76
2017-09-20T17:32:32.800Z,1012.81
2017-09-20T17:42:31.738Z,1012.87
2017-09-20T17:52:36.855Z,1012.98
2017-09-20T18:02:31.735Z,1013.03
2017-09-20T18:12:31.741Z,1013.16
2017-09-20T18:22:32.844Z,1013.25
2017-09-20T18:32:31.733Z,1013.32
2017-09-20T18:42:31.751Z,1013.4
2017-09-20T18:52:31.802Z,1013.37
2017-09-20T19:02:35.176Z,1013.16
2017-09-20T19:12:31.757Z,1013.3
2017-09-20T19:22:31.751Z,1013.34
2017-09-20T19:32:31.737Z,1013.36
2017-09-20T19:42:33.768Z,1013.3
2017-09-20T19:52:31.803Z,1013.27
2017-09-20T20:02:31.744Z,1013.3
2017-09-20T20:12:31.738Z,1013.28
2017-09-20T20:22:31.751Z,1013.31
2017-09-20T20:32:31.901Z,1013.29
2017-09-20T20:42:31.776Z,1013.35
2017-09-20T20:52:31.843Z,1013.4
2017-09-20T21:02:31.882Z,1013.43
2017-09-20T21:12:31.894Z,1013.43
2017-09-20T21:22:31.819Z,1013.35
2017-09-20T21:32:31.811Z,1013.4
2017-09-20T21:42:31.843Z,1013.33
2017-09-20T21:52:31.806Z,1013.43
2017-09-20T22:02:31.725Z,1013.42
2017-09-20T22:12:31.827Z,1013.38
2017-09-20T22:22:32.457Z,1013.45
2017-09-20T22:32:31.726Z,1013.5
2017-09-20T22:42:31.827Z,1013.43
2017-09-20T22:52:31.728Z,1013.44
2017-09-20T23:02:31.805Z,1013.57
2017-09-20T23:12:31.733Z,1013.59
2017-09-20T23:22:31.712Z,1013.44
2017-09-20T23:32:31.786Z,1013.49
2017-09-20T23:42:31.755Z,1013.45
2017-09-20T23:52:31.712Z,1013.4
